CDT,Max TemperatureF,Mean TemperatureF,Min TemperatureF,Max Dew PointF,MeanDew PointF,Min DewpointF,Max Humidity, Mean Humidity, Min Humidity, Max Sea Level PressureIn, Mean Sea Level PressureIn, Min Sea Level PressureIn, Max VisibilityMiles, Mean VisibilityMiles, Min VisibilityMiles, Max Wind SpeedMPH, Mean Wind SpeedMPH, Max Gust SpeedMPH,PrecipitationIn, CloudCover, Events, WindDirDegrees
2013-8-1,85,72,60,70,66,60,100,82,52,30.12,30.04,29.89,10,9,1,25,4,40,0.57,2,Rain-Thunderstorm,169
2013-8-2,84,74,67,70,67,61,99,79,59,30.04,29.94,29.89,10,10,10,10,5,17,0.57,3,Rain,50
2013-8-3,77,70,63,62,60,57,90,70,53,30.20,30.14,30.05,10,10,10,13,4,,0.00,2,,47
2013-8-4,79,68,57,68,61,55,94,75,57,30.21,30.13,30.03,10,10,10,14,5,20,0.00,4,Thunderstorm,116
2013-8-5,85,76,68,75,72,67,100,89,72,30.04,29.93,29.87,10,8,2,14,6,17,0.00,5,Rain,182
2013-8-6,88,77,67,76,72,67,100,86,64,29.99,29.86,29.81,10,9,0,21,3,36,1.96,2,Rain-Thunderstorm,207
2013-8-7,92,74,66,68,65,62,99,75,54,30.02,29.97,29.87,10,10,10,8,3,9,0.03,0,,356
2013-8-8,76,70,65,68,65,63,93,83,64,30.06,30.02,29.97,10,10,10,7,3,,0.00,2,,125
2013-8-9,79,70,61,69,64,58,100,80,50,30.17,30.10,30.04,10,8,0,8,2,,0.00,1,Fog,23
2013-8-10,82,70,59,67,64,59,99,78,59,30.22,30.16,30.08,10,10,7,10,3,16,0.00,2,,158
2013-8-11,85,76,66,73,67,62,93,76,56,30.13,30.07,29.99,10,10,10,12,8,17,0.02,1,Rain-Thunderstorm,194
2013-8-12,83,74,65,70,65,61,99,75,49,30.11,30.06,30.03,10,10,5,9,4,,0.00,1,,14
2013-8-13,78,69,60,64,61,58,99,75,50,30.20,30.15,30.11,10,10,10,8,1,,0.00,2,,48
2013-8-14,73,65,57,64,60,56,98,83,66,30.20,30.16,30.08,10,10,5,12,3,,0.14,3,Rain,118
2013-8-15,67,64,60,64,62,60,100,95,85,30.13,30.08,30.04,10,8,2,14,8,20,0.52,8,Rain-Thunderstorm,102
2013-8-16,74,67,61,62,61,59,100,82,62,30.19,30.16,30.12,10,10,7,15,6,18,0.00,7,Rain,115
2013-8-17,78,68,59,61,60,58,98,75,52,30.21,30.17,30.13,10,10,10,16,4,21,0.00,3,,146
2013-8-18,79,67,55,64,60,54,100,74,54,30.16,30.12,30.05,10,10,10,14,4,21,0.00,0,,155
2013-8-19,86,74,64,71,67,63,95,76,58,30.07,30.00,29.93,10,10,10,17,9,24,0.00,2,,158
2013-8-20,89,80,71,73,70,68,88,74,55,29.97,29.94,29.91,10,10,10,14,10,20,0.00,0,,178
2013-8-21,90,80,71,75,71,68,89,72,54,30.00,29.97,29.94,10,10,10,16,10,22,0.00,0,,175
2013-8-22,83,75,68,72,69,63,98,81,66,30.13,30.07,29.98,10,10,10,21,6,31,0.20,2,Rain-Thunderstorm,83
2013-8-23,88,78,69,74,70,68,97,77,51,30.09,30.04,29.98,10,10,10,16,6,22,0.00,2,,126
2013-8-24,91,82,74,74,72,68,86,70,55,30.06,30.03,29.99,10,10,10,18,12,26,0.00,0,Rain-Thunderstorm,151
2013-8-25,94,85,76,74,72,70,83,67,48,30.11,30.07,30.04,10,10,10,16,13,26,0.00,0,,169
2013-8-26,95,84,73,73,71,69,88,65,46,30.08,30.02,29.94,10,10,10,17,10,23,0.00,0,,173
2013-8-27,96,86,76,71,69,66,71,59,40,29.96,29.94,29.90,10,10,10,15,10,23,0.00,0,,197
2013-8-28,94,82,70,71,67,64,80,62,40,30.01,29.98,29.93,10,10,10,10,5,,0.00,0,,180
2013-8-29,96,82,67,75,71,65,98,71,44,30.02,29.97,29.91,10,10,10,13,4,20,0.00,0,,149
2013-8-30,94,82,71,78,73,69,94,74,57,29.93,29.90,29.87,10,10,7,12,4,,0.00,0,,307
2013-8-31,92,81,70,74,72,70,100,78,48,29.94,29.86,29.80,10,10,7,17,2,30,0.00,0,,182